sensor_id;sensor_type;location;lat;lon;timestamp;P1;durP1;ratioP1;P2;durP2;ratioP2
13406;SDS011;6774;48.208;10.766;2022-08-21T00:01:50;1.00;;;0.67;;
13406;SDS011;6774;48.208;10.766;2022-08-21T00:04:18;1.37;;;1.27;;
13406;SDS011;6774;48.208;10.766;2022-08-21T00:06:47;0.80;;;0.80;;
13406;SDS011;6774;48.208;10.766;2022-08-21T00:09:16;0.40;;;0.40;;
13406;SDS011;6774;48.208;10.766;2022-08-21T00:11:46;0.50;;;0.50;;
13406;SDS011;6774;48.208;10.766;2022-08-21T00:14:15;0.50;;;0.50;;
13406;SDS011;6774;48.208;10.766;2022-08-21T00:16:44;0.67;;;0.67;;
13406;SDS011;6774;48.208;10.766;2022-08-21T00:19:12;0.50;;;0.40;;
13406;SDS011;6774;48.208;10.766;2022-08-21T00:21:39;0.87;;;0.87;;
13406;SDS011;6774;48.208;10.766;2022-08-21T00:24:09;0.60;;;0.60;;
13406;SDS011;6774;48.208;10.766;2022-08-21T00:26:37;1.00;;;0.90;;
13406;SDS011;6774;48.208;10.766;2022-08-21T00:29:07;0.30;;;0.30;;
13406;SDS011;6774;48.208;10.766;2022-08-21T00:31:34;0.90;;;0.80;;
13406;SDS011;6774;48.208;10.766;2022-08-21T00:34:02;0.70;;;0.70;;
13406;SDS011;6774;48.208;10.766;2022-08-21T00:36:31;0.93;;;0.70;;
13406;SDS011;6774;48.208;10.766;2022-08-21T00:38:58;2.27;;;0.63;;
13406;SDS011;6774;48.208;10.766;2022-08-21T00:41:27;2.03;;;0.40;;
13406;SDS011;6774;48.208;10.766;2022-08-21T00:44:04;2.83;;;0.87;;
13406;SDS011;6774;48.208;10.766;2022-08-21T00:46:36;0.30;;;0.30;;
13406;SDS011;6774;48.208;10.766;2022-08-21T00:49:05;1.97;;;0.97;;
13406;SDS011;6774;48.208;10.766;2022-08-21T00:51:36;0.57;;;0.50;;
13406;SDS011;6774;48.208;10.766;2022-08-21T00:54:07;0.50;;;0.50;;
13406;SDS011;6774;48.208;10.766;2022-08-21T00:56:44;0.57;;;0.40;;
13406;SDS011;6774;48.208;10.766;2022-08-21T00:59:16;1.97;;;1.43;;
13406;SDS011;6774;48.208;10.766;2022-08-21T01:01:46;1.17;;;1.17;;
13406;SDS011;6774;48.208;10.766;2022-08-21T01:04:16;0.40;;;0.40;;
13406;SDS011;6774;48.208;10.766;2022-08-21T01:06:44;0.43;;;0.40;;
13406;SDS011;6774;48.208;10.766;2022-08-21T01:09:13;0.60;;;0.60;;
13406;SDS011;6774;48.208;10.766;2022-08-21T01:11:42;0.67;;;0.67;;
13406;SDS011;6774;48.208;10.766;2022-08-21T01:14:10;1.17;;;0.70;;
13406;SDS011;6774;48.208;10.766;2022-08-21T01:16:40;0.40;;;0.40;;
13406;SDS011;6774;48.208;10.766;2022-08-21T01:19:12;0.40;;;0.40;;
13406;SDS011;6774;48.208;10.766;2022-08-21T01:21:42;0.60;;;0.60;;
13406;SDS011;6774;48.208;10.766;2022-08-21T01:24:10;1.23;;;0.73;;
13406;SDS011;6774;48.208;10.766;2022-08-21T01:26:39;1.23;;;1.23;;
13406;SDS011;6774;48.208;10.766;2022-08-21T01:29:11;1.13;;;0.93;;
13406;SDS011;6774;48.208;10.766;2022-08-21T01:31:43;3.93;;;0.50;;
13406;SDS011;6774;48.208;10.766;2022-08-21T01:34:12;0.77;;;0.77;;
13406;SDS011;6774;48.208;10.766;2022-08-21T01:36:43;3.50;;;0.70;;
13406;SDS011;6774;48.208;10.766;2022-08-21T01:39:12;0.37;;;0.37;;
13406;SDS011;6774;48.208;10.766;2022-08-21T01:41:40;0.70;;;0.60;;
13406;SDS011;6774;48.208;10.766;2022-08-21T01:44:09;0.90;;;0.83;;
13406;SDS011;6774;48.208;10.766;2022-08-21T01:46:36;0.93;;;0.93;;
13406;SDS011;6774;48.208;10.766;2022-08-21T01:49:04;1.43;;;1.00;;
13406;SDS011;6774;48.208;10.766;2022-08-21T01:51:32;0.87;;;0.87;;
13406;SDS011;6774;48.208;10.766;2022-08-21T01:54:02;1.00;;;0.93;;
13406;SDS011;6774;48.208;10.766;2022-08-21T01:56:35;2.40;;;0.80;;
13406;SDS011;6774;48.208;10.766;2022-08-21T01:59:03;0.87;;;0.87;;
13406;SDS011;6774;48.208;10.766;2022-08-21T02:01:31;0.77;;;0.73;;
13406;SDS011;6774;48.208;10.766;2022-08-21T02:03:59;0.73;;;0.70;;
13406;SDS011;6774;48.208;10.766;2022-08-21T02:06:27;0.50;;;0.50;;
13406;SDS011;6774;48.208;10.766;2022-08-21T02:08:55;0.87;;;0.87;;
13406;SDS011;6774;48.208;10.766;2022-08-21T02:11:24;0.80;;;0.80;;
13406;SDS011;6774;48.208;10.766;2022-08-21T02:13:52;1.30;;;1.20;;
13406;SDS011;6774;48.208;10.766;2022-08-21T02:16:20;0.57;;;0.57;;
13406;SDS011;6774;48.208;10.766;2022-08-21T02:18:47;1.53;;;0.77;;
13406;SDS011;6774;48.208;10.766;2022-08-21T02:21:15;0.53;;;0.53;;
13406;SDS011;6774;48.208;10.766;2022-08-21T02:23:43;1.27;;;0.87;;
13406;SDS011;6774;48.208;10.766;2022-08-21T02:26:11;1.10;;;1.10;;
13406;SDS011;6774;48.208;10.766;2022-08-21T02:28:41;0.90;;;0.73;;
13406;SDS011;6774;48.208;10.766;2022-08-21T02:31:09;0.50;;;0.50;;
13406;SDS011;6774;48.208;10.766;2022-08-21T02:33:37;0.60;;;0.60;;
13406;SDS011;6774;48.208;10.766;2022-08-21T02:36:06;0.70;;;0.70;;
13406;SDS011;6774;48.208;10.766;2022-08-21T02:38:37;1.97;;;0.67;;
13406;SDS011;6774;48.208;10.766;2022-08-21T02:41:06;0.93;;;0.93;;
13406;SDS011;6774;48.208;10.766;2022-08-21T02:43:36;1.70;;;0.70;;
13406;SDS011;6774;48.208;10.766;2022-08-21T02:46:06;1.30;;;0.80;;
13406;SDS011;6774;48.208;10.766;2022-08-21T02:48:36;0.63;;;0.63;;
13406;SDS011;6774;48.208;10.766;2022-08-21T02:51:05;0.70;;;0.70;;
13406;SDS011;6774;48.208;10.766;2022-08-21T02:53:35;0.87;;;0.87;;
13406;SDS011;6774;48.208;10.766;2022-08-21T02:56:04;0.73;;;0.73;;
13406;SDS011;6774;48.208;10.766;2022-08-21T02:58:36;0.70;;;0.70;;
13406;SDS011;6774;48.208;10.766;2022-08-21T03:01:08;0.70;;;0.67;;
13406;SDS011;6774;48.208;10.766;2022-08-21T03:03:39;1.20;;;1.20;;
13406;SDS011;6774;48.208;10.766;2022-08-21T03:06:10;0.60;;;0.60;;
13406;SDS011;6774;48.208;10.766;2022-08-21T03:08:40;1.80;;;1.03;;
13406;SDS011;6774;48.208;10.766;2022-08-21T03:11:11;3.60;;;1.17;;
13406;SDS011;6774;48.208;10.766;2022-08-21T03:13:40;17.00;;;2.50;;
13406;SDS011;6774;48.208;10.766;2022-08-21T03:16:10;0.70;;;0.70;;
13406;SDS011;6774;48.208;10.766;2022-08-21T03:18:38;0.93;;;0.93;;
13406;SDS011;6774;48.208;10.766;2022-08-21T03:21:05;0.83;;;0.63;;
13406;SDS011;6774;48.208;10.766;2022-08-21T03:23:34;0.93;;;0.93;;
13406;SDS011;6774;48.208;10.766;2022-08-21T03:26:02;2.33;;;0.80;;
13406;SDS011;6774;48.208;10.766;2022-08-21T03:28:33;0.80;;;0.80;;
13406;SDS011;6774;48.208;10.766;2022-08-21T03:31:01;0.80;;;0.80;;
13406;SDS011;6774;48.208;10.766;2022-08-21T03:33:30;0.73;;;0.73;;
13406;SDS011;6774;48.208;10.766;2022-08-21T03:36:00;0.57;;;0.57;;
13406;SDS011;6774;48.208;10.766;2022-08-21T03:38:32;0.43;;;0.43;;
13406;SDS011;6774;48.208;10.766;2022-08-21T03:41:02;0.43;;;0.43;;
13406;SDS011;6774;48.208;10.766;2022-08-21T03:43:31;1.00;;;0.70;;
13406;SDS011;6774;48.208;10.766;2022-08-21T03:46:00;3.33;;;1.07;;
13406;SDS011;6774;48.208;10.766;2022-08-21T03:48:28;1.50;;;1.40;;
13406;SDS011;6774;48.208;10.766;2022-08-21T03:50:57;1.67;;;1.57;;
13406;SDS011;6774;48.208;10.766;2022-08-21T03:53:26;3.43;;;2.33;;
13406;SDS011;6774;48.208;10.766;2022-08-21T03:55:54;2.23;;;1.83;;
13406;SDS011;6774;48.208;10.766;2022-08-21T03:58:23;1.00;;;1.00;;
13406;SDS011;6774;48.208;10.766;2022-08-21T04:00:54;1.13;;;1.13;;
13406;SDS011;6774;48.208;10.766;2022-08-21T04:03:24;1.90;;;1.27;;
13406;SDS011;6774;48.208;10.766;2022-08-21T04:05:53;6.20;;;1.50;;
13406;SDS011;6774;48.208;10.766;2022-08-21T04:08:23;0.83;;;0.70;;
13406;SDS011;6774;48.208;10.766;2022-08-21T04:10:52;0.90;;;0.90;;
13406;SDS011;6774;48.208;10.766;2022-08-21T04:13:23;0.70;;;0.70;;
13406;SDS011;6774;48.208;10.766;2022-08-21T04:15:52;0.70;;;0.70;;
13406;SDS011;6774;48.208;10.766;2022-08-21T04:18:20;1.60;;;1.50;;
13406;SDS011;6774;48.208;10.766;2022-08-21T04:20:49;0.60;;;0.60;;
13406;SDS011;6774;48.208;10.766;2022-08-21T04:23:20;0.60;;;0.60;;
13406;SDS011;6774;48.208;10.766;2022-08-21T04:25:51;1.37;;;1.37;;
13406;SDS011;6774;48.208;10.766;2022-08-21T04:28:20;4.77;;;0.80;;
13406;SDS011;6774;48.208;10.766;2022-08-21T04:30:54;0.43;;;0.43;;
13406;SDS011;6774;48.208;10.766;2022-08-21T04:33:22;1.13;;;0.93;;
13406;SDS011;6774;48.208;10.766;2022-08-21T04:35:51;2.70;;;0.70;;
13406;SDS011;6774;48.208;10.766;2022-08-21T04:38:19;0.50;;;0.50;;
13406;SDS011;6774;48.208;10.766;2022-08-21T04:40:49;0.50;;;0.50;;
13406;SDS011;6774;48.208;10.766;2022-08-21T04:43:18;0.80;;;0.73;;
13406;SDS011;6774;48.208;10.766;2022-08-21T04:45:47;0.67;;;0.67;;
13406;SDS011;6774;48.208;10.766;2022-08-21T04:48:18;4.50;;;2.47;;
13406;SDS011;6774;48.208;10.766;2022-08-21T04:50:49;0.93;;;0.93;;
13406;SDS011;6774;48.208;10.766;2022-08-21T04:53:30;1.73;;;1.17;;
13406;SDS011;6774;48.208;10.766;2022-08-21T04:56:03;1.40;;;1.03;;
13406;SDS011;6774;48.208;10.766;2022-08-21T04:58:36;0.77;;;0.77;;
13406;SDS011;6774;48.208;10.766;2022-08-21T05:01:07;1.13;;;0.83;;
13406;SDS011;6774;48.208;10.766;2022-08-21T05:03:37;0.73;;;0.73;;
13406;SDS011;6774;48.208;10.766;2022-08-21T05:06:08;1.10;;;1.07;;
13406;SDS011;6774;48.208;10.766;2022-08-21T05:08:38;1.03;;;1.00;;
13406;SDS011;6774;48.208;10.766;2022-08-21T05:11:09;1.70;;;1.60;;
13406;SDS011;6774;48.208;10.766;2022-08-21T05:13:37;1.50;;;1.07;;
13406;SDS011;6774;48.208;10.766;2022-08-21T05:16:07;1.43;;;1.43;;
13406;SDS011;6774;48.208;10.766;2022-08-21T05:18:35;3.90;;;1.83;;
13406;SDS011;6774;48.208;10.766;2022-08-21T05:21:03;1.30;;;1.20;;
13406;SDS011;6774;48.208;10.766;2022-08-21T05:23:31;1.40;;;1.30;;
13406;SDS011;6774;48.208;10.766;2022-08-21T05:26:00;1.00;;;0.93;;
13406;SDS011;6774;48.208;10.766;2022-08-21T05:28:29;2.00;;;0.80;;
13406;SDS011;6774;48.208;10.766;2022-08-21T05:30:57;0.53;;;0.53;;
13406;SDS011;6774;48.208;10.766;2022-08-21T05:33:26;0.70;;;0.70;;
13406;SDS011;6774;48.208;10.766;2022-08-21T05:35:54;0.80;;;0.67;;
13406;SDS011;6774;48.208;10.766;2022-08-21T05:38:23;2.40;;;1.27;;
13406;SDS011;6774;48.208;10.766;2022-08-21T05:40:52;0.93;;;0.70;;
13406;SDS011;6774;48.208;10.766;2022-08-21T05:43:20;0.93;;;0.93;;
13406;SDS011;6774;48.208;10.766;2022-08-21T05:45:50;0.63;;;0.63;;
13406;SDS011;6774;48.208;10.766;2022-08-21T05:48:18;9.43;;;1.43;;
13406;SDS011;6774;48.208;10.766;2022-08-21T05:50:48;1.10;;;1.10;;
13406;SDS011;6774;48.208;10.766;2022-08-21T05:53:18;0.70;;;0.70;;
13406;SDS011;6774;48.208;10.766;2022-08-21T05:55:47;1.10;;;0.77;;
13406;SDS011;6774;48.208;10.766;2022-08-21T05:58:17;0.80;;;0.80;;
13406;SDS011;6774;48.208;10.766;2022-08-21T06:00:47;0.53;;;0.53;;
13406;SDS011;6774;48.208;10.766;2022-08-21T06:03:19;0.87;;;0.40;;
13406;SDS011;6774;48.208;10.766;2022-08-21T06:05:49;0.67;;;0.67;;
13406;SDS011;6774;48.208;10.766;2022-08-21T06:08:17;0.53;;;0.53;;
13406;SDS011;6774;48.208;10.766;2022-08-21T06:10:46;0.57;;;0.57;;
13406;SDS011;6774;48.208;10.766;2022-08-21T06:13:15;0.70;;;0.70;;
13406;SDS011;6774;48.208;10.766;2022-08-21T06:15:45;1.20;;;0.90;;
13406;SDS011;6774;48.208;10.766;2022-08-21T06:18:14;1.33;;;1.33;;
13406;SDS011;6774;48.208;10.766;2022-08-21T06:20:43;1.00;;;1.00;;
13406;SDS011;6774;48.208;10.766;2022-08-21T06:23:11;0.53;;;0.53;;
13406;SDS011;6774;48.208;10.766;2022-08-21T06:25:39;3.70;;;1.07;;
13406;SDS011;6774;48.208;10.766;2022-08-21T06:28:08;1.07;;;0.97;;
13406;SDS011;6774;48.208;10.766;2022-08-21T06:30:37;0.73;;;0.73;;
13406;SDS011;6774;48.208;10.766;2022-08-21T06:33:06;2.50;;;1.43;;
13406;SDS011;6774;48.208;10.766;2022-08-21T06:35:36;1.07;;;1.07;;
13406;SDS011;6774;48.208;10.766;2022-08-21T06:38:07;4.00;;;1.43;;
13406;SDS011;6774;48.208;10.766;2022-08-21T06:40:35;1.53;;;0.90;;
13406;SDS011;6774;48.208;10.766;2022-08-21T06:43:10;0.97;;;0.80;;
13406;SDS011;6774;48.208;10.766;2022-08-21T06:45:40;1.20;;;1.20;;
13406;SDS011;6774;48.208;10.766;2022-08-21T06:48:09;0.80;;;0.80;;
13406;SDS011;6774;48.208;10.766;2022-08-21T06:50:45;1.50;;;1.40;;
13406;SDS011;6774;48.208;10.766;2022-08-21T06:53:14;2.60;;;1.00;;
13406;SDS011;6774;48.208;10.766;2022-08-21T06:55:44;0.90;;;0.73;;
13406;SDS011;6774;48.208;10.766;2022-08-21T06:58:12;1.27;;;1.00;;
13406;SDS011;6774;48.208;10.766;2022-08-21T07:00:41;1.90;;;1.50;;
13406;SDS011;6774;48.208;10.766;2022-08-21T07:03:16;3.57;;;2.17;;
13406;SDS011;6774;48.208;10.766;2022-08-21T07:05:46;1.20;;;1.20;;
13406;SDS011;6774;48.208;10.766;2022-08-21T07:08:14;1.57;;;1.47;;
13406;SDS011;6774;48.208;10.766;2022-08-21T07:10:42;2.63;;;1.70;;
13406;SDS011;6774;48.208;10.766;2022-08-21T07:13:11;1.07;;;0.90;;
13406;SDS011;6774;48.208;10.766;2022-08-21T07:15:39;1.43;;;1.33;;
13406;SDS011;6774;48.208;10.766;2022-08-21T07:18:07;2.30;;;2.20;;
13406;SDS011;6774;48.208;10.766;2022-08-21T07:20:35;2.47;;;1.20;;
13406;SDS011;6774;48.208;10.766;2022-08-21T07:23:06;1.80;;;1.20;;
13406;SDS011;6774;48.208;10.766;2022-08-21T07:25:38;1.67;;;1.37;;
13406;SDS011;6774;48.208;10.766;2022-08-21T07:28:06;1.73;;;1.63;;
13406;SDS011;6774;48.208;10.766;2022-08-21T07:30:34;1.97;;;1.40;;
13406;SDS011;6774;48.208;10.766;2022-08-21T07:33:01;3.87;;;1.87;;
13406;SDS011;6774;48.208;10.766;2022-08-21T07:35:29;2.37;;;1.20;;
13406;SDS011;6774;48.208;10.766;2022-08-21T07:37:57;1.93;;;1.83;;
13406;SDS011;6774;48.208;10.766;2022-08-21T07:40:26;1.57;;;1.47;;
13406;SDS011;6774;48.208;10.766;2022-08-21T07:42:54;5.97;;;1.63;;
13406;SDS011;6774;48.208;10.766;2022-08-21T07:45:22;2.27;;;2.13;;
13406;SDS011;6774;48.208;10.766;2022-08-21T07:47:50;1.97;;;1.87;;
13406;SDS011;6774;48.208;10.766;2022-08-21T07:50:23;1.20;;;1.10;;
13406;SDS011;6774;48.208;10.766;2022-08-21T07:52:51;2.10;;;2.00;;
13406;SDS011;6774;48.208;10.766;2022-08-21T07:55:19;2.43;;;1.80;;
13406;SDS011;6774;48.208;10.766;2022-08-21T07:57:50;2.20;;;2.10;;
13406;SDS011;6774;48.208;10.766;2022-08-21T08:00:18;2.50;;;2.30;;
13406;SDS011;6774;48.208;10.766;2022-08-21T08:02:48;4.83;;;2.87;;
13406;SDS011;6774;48.208;10.766;2022-08-21T08:05:19;6.50;;;2.50;;
13406;SDS011;6774;48.208;10.766;2022-08-21T08:07:49;2.33;;;1.83;;
13406;SDS011;6774;48.208;10.766;2022-08-21T08:10:17;3.60;;;2.30;;
13406;SDS011;6774;48.208;10.766;2022-08-21T08:12:46;2.03;;;1.80;;
13406;SDS011;6774;48.208;10.766;2022-08-21T08:15:17;2.07;;;1.93;;
13406;SDS011;6774;48.208;10.766;2022-08-21T08:17:47;1.80;;;1.70;;
13406;SDS011;6774;48.208;10.766;2022-08-21T08:20:16;2.00;;;1.90;;
13406;SDS011;6774;48.208;10.766;2022-08-21T08:22:44;1.73;;;1.50;;
13406;SDS011;6774;48.208;10.766;2022-08-21T08:25:16;2.20;;;2.10;;
13406;SDS011;6774;48.208;10.766;2022-08-21T08:27:45;1.97;;;1.77;;
13406;SDS011;6774;48.208;10.766;2022-08-21T08:30:15;1.90;;;1.73;;
13406;SDS011;6774;48.208;10.766;2022-08-21T08:32:46;2.60;;;2.50;;
13406;SDS011;6774;48.208;10.766;2022-08-21T08:35:14;1.90;;;1.80;;
13406;SDS011;6774;48.208;10.766;2022-08-21T08:37:43;2.70;;;1.83;;
13406;SDS011;6774;48.208;10.766;2022-08-21T08:40:18;2.47;;;2.07;;
13406;SDS011;6774;48.208;10.766;2022-08-21T08:42:52;2.00;;;1.90;;
13406;SDS011;6774;48.208;10.766;2022-08-21T08:45:22;2.13;;;2.03;;
13406;SDS011;6774;48.208;10.766;2022-08-21T08:47:53;3.93;;;3.63;;
13406;SDS011;6774;48.208;10.766;2022-08-21T08:50:40;5.90;;;3.23;;
13406;SDS011;6774;48.208;10.766;2022-08-21T08:53:12;2.37;;;2.27;;
13406;SDS011;6774;48.208;10.766;2022-08-21T08:55:45;1.87;;;1.77;;
13406;SDS011;6774;48.208;10.766;2022-08-21T08:58:15;2.37;;;2.07;;
13406;SDS011;6774;48.208;10.766;2022-08-21T09:00:50;2.60;;;2.50;;
13406;SDS011;6774;48.208;10.766;2022-08-21T09:03:19;2.60;;;2.40;;
13406;SDS011;6774;48.208;10.766;2022-08-21T09:05:50;2.50;;;2.40;;
13406;SDS011;6774;48.208;10.766;2022-08-21T09:11:19;2.53;;;2.33;;
13406;SDS011;6774;48.208;10.766;2022-08-21T09:13:55;2.28;;;2.17;;
13406;SDS011;6774;48.208;10.766;2022-08-21T09:16:36;2.50;;;2.40;;
13406;SDS011;6774;48.208;10.766;2022-08-21T09:19:14;1.25;;;1.25;;
13406;SDS011;6774;48.208;10.766;2022-08-21T09:21:57;1.67;;;1.67;;
13406;SDS011;6774;48.208;10.766;2022-08-21T09:24:31;1.92;;;1.83;;
13406;SDS011;6774;48.208;10.766;2022-08-21T09:27:06;2.85;;;2.75;;
13406;SDS011;6774;48.208;10.766;2022-08-21T09:29:37;1.42;;;1.42;;
13406;SDS011;6774;48.208;10.766;2022-08-21T09:32:11;2.05;;;1.95;;
13406;SDS011;6774;48.208;10.766;2022-08-21T09:34:54;2.70;;;1.65;;
13406;SDS011;6774;48.208;10.766;2022-08-21T09:37:24;2.80;;;1.85;;
13406;SDS011;6774;48.208;10.766;2022-08-21T09:39:53;1.77;;;1.67;;
13406;SDS011;6774;48.208;10.766;2022-08-21T09:42:21;1.90;;;1.80;;
13406;SDS011;6774;48.208;10.766;2022-08-21T09:45:04;3.40;;;3.10;;
13406;SDS011;6774;48.208;10.766;2022-08-21T09:47:38;2.85;;;1.58;;
13406;SDS011;6774;48.208;10.766;2022-08-21T09:50:10;1.60;;;1.50;;
13406;SDS011;6774;48.208;10.766;2022-08-21T09:52:44;1.98;;;1.85;;
13406;SDS011;6774;48.208;10.766;2022-08-21T09:55:19;2.67;;;2.08;;
13406;SDS011;6774;48.208;10.766;2022-08-21T09:58:16;1.88;;;1.75;;
13406;SDS011;6774;48.208;10.766;2022-08-21T10:00:47;1.33;;;1.27;;
13406;SDS011;6774;48.208;10.766;2022-08-21T10:03:26;1.75;;;1.65;;
13406;SDS011;6774;48.208;10.766;2022-08-21T10:05:57;1.95;;;1.85;;
13406;SDS011;6774;48.208;10.766;2022-08-21T10:08:29;1.45;;;1.45;;
13406;SDS011;6774;48.208;10.766;2022-08-21T10:10:57;1.83;;;1.73;;
13406;SDS011;6774;48.208;10.766;2022-08-21T10:13:35;2.45;;;2.25;;
13406;SDS011;6774;48.208;10.766;2022-08-21T10:16:15;2.72;;;2.63;;
13406;SDS011;6774;48.208;10.766;2022-08-21T10:18:55;1.90;;;1.52;;
13406;SDS011;6774;48.208;10.766;2022-08-21T10:21:30;1.67;;;1.58;;
13406;SDS011;6774;48.208;10.766;2022-08-21T10:24:08;1.50;;;1.40;;
13406;SDS011;6774;48.208;10.766;2022-08-21T10:27:00;5.18;;;2.42;;
13406;SDS011;6774;48.208;10.766;2022-08-21T10:29:39;1.65;;;1.55;;
13406;SDS011;6774;48.208;10.766;2022-08-21T10:32:20;1.23;;;1.23;;
13406;SDS011;6774;48.208;10.766;2022-08-21T10:34:59;2.15;;;1.67;;
13406;SDS011;6774;48.208;10.766;2022-08-21T10:37:37;1.70;;;1.60;;
13406;SDS011;6774;48.208;10.766;2022-08-21T10:40:15;2.17;;;2.08;;
13406;SDS011;6774;48.208;10.766;2022-08-21T10:42:55;1.63;;;1.52;;
13406;SDS011;6774;48.208;10.766;2022-08-21T10:45:36;1.25;;;1.05;;
13406;SDS011;6774;48.208;10.766;2022-08-21T10:48:14;2.30;;;1.75;;
13406;SDS011;6774;48.208;10.766;2022-08-21T10:50:52;1.83;;;1.73;;
13406;SDS011;6774;48.208;10.766;2022-08-21T10:53:32;2.28;;;2.17;;
13406;SDS011;6774;48.208;10.766;2022-08-21T10:56:10;2.17;;;2.08;;
13406;SDS011;6774;48.208;10.766;2022-08-21T10:58:45;1.50;;;1.30;;
13406;SDS011;6774;48.208;10.766;2022-08-21T11:01:18;1.38;;;0.95;;
13406;SDS011;6774;48.208;10.766;2022-08-21T11:03:51;1.85;;;1.80;;
13406;SDS011;6774;48.208;10.766;2022-08-21T11:06:29;1.48;;;1.30;;
13406;SDS011;6774;48.208;10.766;2022-08-21T11:09:04;1.73;;;1.63;;
13406;SDS011;6774;48.208;10.766;2022-08-21T11:11:39;1.42;;;1.25;;
13406;SDS011;6774;48.208;10.766;2022-08-21T11:14:33;1.98;;;1.88;;
13406;SDS011;6774;48.208;10.766;2022-08-21T11:17:16;1.25;;;1.20;;
13406;SDS011;6774;48.208;10.766;2022-08-21T11:19:50;2.78;;;1.60;;
13406;SDS011;6774;48.208;10.766;2022-08-21T11:22:24;1.67;;;1.58;;
13406;SDS011;6774;48.208;10.766;2022-08-21T11:25:00;1.50;;;1.40;;
13406;SDS011;6774;48.208;10.766;2022-08-21T11:27:35;3.38;;;3.08;;
13406;SDS011;6774;48.208;10.766;2022-08-21T11:30:08;2.22;;;2.13;;
13406;SDS011;6774;48.208;10.766;2022-08-21T11:32:58;2.10;;;2.00;;
13406;SDS011;6774;48.208;10.766;2022-08-21T11:35:38;3.65;;;2.00;;
13406;SDS011;6774;48.208;10.766;2022-08-21T11:38:16;2.20;;;2.10;;
13406;SDS011;6774;48.208;10.766;2022-08-21T11:41:03;1.30;;;1.30;;
13406;SDS011;6774;48.208;10.766;2022-08-21T11:43:41;1.75;;;1.65;;
13406;SDS011;6774;48.208;10.766;2022-08-21T11:46:15;0.90;;;0.90;;
13406;SDS011;6774;48.208;10.766;2022-08-21T11:48:54;2.45;;;2.35;;
13406;SDS011;6774;48.208;10.766;2022-08-21T11:51:36;2.08;;;1.98;;
13406;SDS011;6774;48.208;10.766;2022-08-21T11:54:21;2.58;;;1.65;;
13406;SDS011;6774;48.208;10.766;2022-08-21T11:56:55;1.40;;;1.38;;
13406;SDS011;6774;48.208;10.766;2022-08-21T11:59:35;1.48;;;1.38;;
13406;SDS011;6774;48.208;10.766;2022-08-21T12:02:07;1.63;;;1.52;;
13406;SDS011;6774;48.208;10.766;2022-08-21T12:04:44;1.15;;;1.10;;
13406;SDS011;6774;48.208;10.766;2022-08-21T12:07:17;1.77;;;1.67;;
13406;SDS011;6774;48.208;10.766;2022-08-21T12:09:59;1.23;;;1.13;;
13406;SDS011;6774;48.208;10.766;2022-08-21T12:12:28;1.05;;;1.02;;
13406;SDS011;6774;48.208;10.766;2022-08-21T12:15:06;1.40;;;1.30;;
13406;SDS011;6774;48.208;10.766;2022-08-21T12:17:55;1.80;;;1.70;;
13406;SDS011;6774;48.208;10.766;2022-08-21T12:20:33;3.38;;;1.52;;
13406;SDS011;6774;48.208;10.766;2022-08-21T12:23:04;4.78;;;2.05;;
13406;SDS011;6774;48.208;10.766;2022-08-21T12:25:46;2.28;;;2.08;;
13406;SDS011;6774;48.208;10.766;2022-08-21T12:28:26;0.90;;;0.90;;
13406;SDS011;6774;48.208;10.766;2022-08-21T12:30:56;1.92;;;1.58;;
13406;SDS011;6774;48.208;10.766;2022-08-21T12:33:26;2.22;;;2.13;;
13406;SDS011;6774;48.208;10.766;2022-08-21T12:36:02;1.90;;;1.42;;
13406;SDS011;6774;48.208;10.766;2022-08-21T12:38:32;1.02;;;1.02;;
13406;SDS011;6774;48.208;10.766;2022-08-21T12:41:10;1.13;;;1.02;;
13406;SDS011;6774;48.208;10.766;2022-08-21T12:43:45;2.13;;;1.10;;
13406;SDS011;6774;48.208;10.766;2022-08-21T12:46:17;1.70;;;1.60;;
13406;SDS011;6774;48.208;10.766;2022-08-21T12:48:47;1.35;;;1.25;;
13406;SDS011;6774;48.208;10.766;2022-08-21T12:51:22;1.25;;;1.08;;
13406;SDS011;6774;48.208;10.766;2022-08-21T12:53:52;2.55;;;1.23;;
13406;SDS011;6774;48.208;10.766;2022-08-21T12:56:24;1.00;;;1.00;;
13406;SDS011;6774;48.208;10.766;2022-08-21T12:58:54;0.73;;;0.73;;
13406;SDS011;6774;48.208;10.766;2022-08-21T13:01:24;2.05;;;1.95;;
13406;SDS011;6774;48.208;10.766;2022-08-21T13:03:55;1.40;;;1.40;;
13406;SDS011;6774;48.208;10.766;2022-08-21T13:06:32;1.30;;;1.20;;
13406;SDS011;6774;48.208;10.766;2022-08-21T13:09:05;2.28;;;1.20;;
13406;SDS011;6774;48.208;10.766;2022-08-21T13:11:36;1.00;;;0.90;;
13406;SDS011;6774;48.208;10.766;2022-08-21T13:14:08;2.97;;;1.17;;
13406;SDS011;6774;48.208;10.766;2022-08-21T13:16:45;1.77;;;1.67;;
13406;SDS011;6774;48.208;10.766;2022-08-21T13:19:16;1.80;;;1.70;;
13406;SDS011;6774;48.208;10.766;2022-08-21T13:21:49;1.33;;;1.23;;
13406;SDS011;6774;48.208;10.766;2022-08-21T13:24:20;1.75;;;1.65;;
13406;SDS011;6774;48.208;10.766;2022-08-21T13:27:22;0.95;;;0.90;;
13406;SDS011;6774;48.208;10.766;2022-08-21T13:30:04;1.10;;;1.10;;
13406;SDS011;6774;48.208;10.766;2022-08-21T13:32:39;0.95;;;0.95;;
13406;SDS011;6774;48.208;10.766;2022-08-21T13:35:11;1.58;;;1.48;;
13406;SDS011;6774;48.208;10.766;2022-08-21T13:37:42;2.30;;;1.77;;
13406;SDS011;6774;48.208;10.766;2022-08-21T13:40:12;2.53;;;1.52;;
13406;SDS011;6774;48.208;10.766;2022-08-21T13:42:45;1.20;;;1.20;;
13406;SDS011;6774;48.208;10.766;2022-08-21T13:45:18;1.33;;;1.23;;
13406;SDS011;6774;48.208;10.766;2022-08-21T13:47:51;1.27;;;1.17;;
13406;SDS011;6774;48.208;10.766;2022-08-21T13:50:20;3.30;;;2.47;;
13406;SDS011;6774;48.208;10.766;2022-08-21T13:52:57;1.20;;;1.10;;
13406;SDS011;6774;48.208;10.766;2022-08-21T13:55:33;2.15;;;2.05;;
13406;SDS011;6774;48.208;10.766;2022-08-21T13:58:05;2.00;;;1.90;;
13406;SDS011;6774;48.208;10.766;2022-08-21T14:00:35;1.52;;;1.50;;
13406;SDS011;6774;48.208;10.766;2022-08-21T14:03:10;1.42;;;1.40;;
13406;SDS011;6774;48.208;10.766;2022-08-21T14:05:50;1.83;;;1.13;;
13406;SDS011;6774;48.208;10.766;2022-08-21T14:08:20;1.58;;;1.42;;
13406;SDS011;6774;48.208;10.766;2022-08-21T14:10:55;2.03;;;1.83;;
13406;SDS011;6774;48.208;10.766;2022-08-21T14:13:32;1.55;;;0.82;;
13406;SDS011;6774;48.208;10.766;2022-08-21T14:16:10;1.58;;;1.40;;
13406;SDS011;6774;48.208;10.766;2022-08-21T14:18:44;2.28;;;2.08;;
13406;SDS011;6774;48.208;10.766;2022-08-21T14:21:22;1.23;;;1.23;;
13406;SDS011;6774;48.208;10.766;2022-08-21T14:24:02;1.73;;;1.58;;
13406;SDS011;6774;48.208;10.766;2022-08-21T14:26:32;1.17;;;1.08;;
13406;SDS011;6774;48.208;10.766;2022-08-21T14:29:07;1.08;;;1.05;;
13406;SDS011;6774;48.208;10.766;2022-08-21T14:31:36;2.00;;;1.90;;
13406;SDS011;6774;48.208;10.766;2022-08-21T14:34:09;2.28;;;2.17;;
13406;SDS011;6774;48.208;10.766;2022-08-21T14:36:45;1.23;;;1.23;;
13406;SDS011;6774;48.208;10.766;2022-08-21T14:39:13;1.88;;;1.75;;
13406;SDS011;6774;48.208;10.766;2022-08-21T14:41:41;1.00;;;1.00;;
13406;SDS011;6774;48.208;10.766;2022-08-21T14:44:11;2.20;;;2.10;;
13406;SDS011;6774;48.208;10.766;2022-08-21T14:46:39;3.30;;;1.60;;
13406;SDS011;6774;48.208;10.766;2022-08-21T14:49:23;1.50;;;1.50;;
13406;SDS011;6774;48.208;10.766;2022-08-21T14:51:54;0.90;;;0.90;;
13406;SDS011;6774;48.208;10.766;2022-08-21T14:54:25;1.40;;;1.30;;
13406;SDS011;6774;48.208;10.766;2022-08-21T14:56:58;2.90;;;1.45;;
13406;SDS011;6774;48.208;10.766;2022-08-21T14:59:29;3.00;;;2.47;;
13406;SDS011;6774;48.208;10.766;2022-08-21T15:01:59;1.17;;;1.17;;
13406;SDS011;6774;48.208;10.766;2022-08-21T15:04:27;1.52;;;1.42;;
13406;SDS011;6774;48.208;10.766;2022-08-21T15:06:55;1.33;;;1.23;;
13406;SDS011;6774;48.208;10.766;2022-08-21T15:09:22;1.00;;;1.00;;
13406;SDS011;6774;48.208;10.766;2022-08-21T15:11:51;1.00;;;1.00;;
13406;SDS011;6774;48.208;10.766;2022-08-21T15:14:20;1.83;;;1.40;;
13406;SDS011;6774;48.208;10.766;2022-08-21T15:16:53;1.35;;;1.25;;
13406;SDS011;6774;48.208;10.766;2022-08-21T15:19:21;0.95;;;0.95;;